createdAt,value
2018-01-22T00:00:47.615Z,8.73
2018-01-22T00:03:15.218Z,9.55
2018-01-22T00:05:42.681Z,8.97
2018-01-22T00:08:10.173Z,11.37
2018-01-22T00:10:37.678Z,9.65
2018-01-22T00:13:09.423Z,9.20
2018-01-22T00:15:36.879Z,11.13
2018-01-22T00:18:04.344Z,8.60
2018-01-22T00:20:31.948Z,11.00
2018-01-22T00:22:59.560Z,8.57
2018-01-22T00:25:27.013Z,8.85
2018-01-22T00:27:54.795Z,8.48
2018-01-22T00:30:22.440Z,8.67
2018-01-22T00:32:50.327Z,8.30
2018-01-22T00:35:17.764Z,9.47
2018-01-22T00:37:46.025Z,9.13
2018-01-22T00:40:14.468Z,8.77
2018-01-22T00:42:41.940Z,9.35
2018-01-22T00:45:09.404Z,9.23
2018-01-22T00:47:36.857Z,8.17
2018-01-22T00:50:04.329Z,8.73
2018-01-22T00:52:31.788Z,8.47
2018-01-22T00:54:59.262Z,7.33
2018-01-22T00:57:26.724Z,8.80
2018-01-22T00:59:54.342Z,9.13
2018-01-22T01:02:21.804Z,7.93
2018-01-22T01:04:49.244Z,8.97
2018-01-22T01:07:17.487Z,8.55
2018-01-22T01:09:44.993Z,7.60
2018-01-22T01:12:12.461Z,7.72
2018-01-22T01:14:39.929Z,8.80
2018-01-22T01:17:07.401Z,8.37
2018-01-22T01:19:34.847Z,8.37
2018-01-22T01:22:02.317Z,7.40
2018-01-22T01:24:29.772Z,8.57
2018-01-22T01:26:57.261Z,8.60
2018-01-22T01:29:26.393Z,8.27
2018-01-22T01:31:53.856Z,7.40
2018-01-22T01:34:21.324Z,8.17
2018-01-22T01:36:49.305Z,8.00
2018-01-22T01:39:16.771Z,9.20
2018-01-22T01:41:45.809Z,7.75
2018-01-22T01:44:16.698Z,8.50
2018-01-22T01:46:44.188Z,8.63
2018-01-22T01:49:11.627Z,7.97
2018-01-22T01:51:39.373Z,8.80
2018-01-22T01:54:06.824Z,8.50
2018-01-22T01:56:34.613Z,8.82
2018-01-22T01:59:02.113Z,8.93
2018-01-22T02:01:29.543Z,8.60
2018-01-22T02:03:56.988Z,8.65
2018-01-22T02:06:24.532Z,9.00
2018-01-22T02:08:53.698Z,9.40
2018-01-22T02:11:21.160Z,9.23
2018-01-22T02:13:48.671Z,8.77
2018-01-22T02:16:16.146Z,8.82
2018-01-22T02:18:43.618Z,8.15
2018-01-22T02:21:11.062Z,9.52
2018-01-22T02:23:38.569Z,9.30
2018-01-22T02:26:06.071Z,10.10
2018-01-22T02:28:33.537Z,10.87
2018-01-22T02:31:05.425Z,10.48
2018-01-22T02:33:32.877Z,11.57
2018-01-22T02:36:00.460Z,10.30
2018-01-22T02:38:27.905Z,11.40
2018-01-22T02:40:55.419Z,9.57
2018-01-22T02:43:22.929Z,11.20
2018-01-22T02:45:52.165Z,11.70
2018-01-22T02:48:20.417Z,10.90
2018-01-22T02:50:47.913Z,11.85
2018-01-22T02:53:16.528Z,12.85
2018-01-22T02:55:43.986Z,10.20
2018-01-22T02:58:11.449Z,11.47
2018-01-22T03:00:38.901Z,11.48
2018-01-22T03:03:06.423Z,13.17
2018-01-22T03:05:33.873Z,11.77
2018-01-22T03:08:01.448Z,12.37
2018-01-22T03:10:29.844Z,12.67
2018-01-22T03:12:57.325Z,12.23
2018-01-22T03:15:24.825Z,13.67
2018-01-22T03:17:52.494Z,10.20
2018-01-22T03:20:19.968Z,12.00
2018-01-22T03:22:47.440Z,10.50
2018-01-22T03:25:14.894Z,10.33
2018-01-22T03:27:42.334Z,9.47
2018-01-22T03:30:09.818Z,10.17
2018-01-22T03:32:38.221Z,10.57
2018-01-22T03:35:05.700Z,9.13
2018-01-22T03:37:33.174Z,9.53
2018-01-22T03:40:01.396Z,9.93
2018-01-22T03:42:28.949Z,9.20
2018-01-22T03:44:57.212Z,9.70
2018-01-22T03:47:24.703Z,9.88
2018-01-22T03:49:52.925Z,7.95
2018-01-22T03:52:20.380Z,8.90
2018-01-22T03:54:47.852Z,9.20
2018-01-22T03:57:15.320Z,9.63
2018-01-22T03:59:42.768Z,8.02
2018-01-22T04:02:11.136Z,8.90
2018-01-22T04:04:38.625Z,9.45
2018-01-22T04:07:06.101Z,7.03
2018-01-22T04:09:33.559Z,7.20
2018-01-22T04:12:01.006Z,7.03
2018-01-22T04:14:28.473Z,10.13
2018-01-22T04:17:02.306Z,7.83
2018-01-22T04:19:31.648Z,6.03
2018-01-22T04:21:59.428Z,8.10
2018-01-22T04:24:26.939Z,8.77
2018-01-22T04:26:54.413Z,7.80
2018-01-22T04:29:22.126Z,7.90
2018-01-22T04:31:50.622Z,6.72
2018-01-22T04:34:18.851Z,7.00
2018-01-22T04:36:46.392Z,7.70
2018-01-22T04:39:13.844Z,7.68
2018-01-22T04:41:41.306Z,8.10
2018-01-22T04:44:09.439Z,8.32
2018-01-22T04:46:37.664Z,8.82
2018-01-22T04:49:05.112Z,9.15
2018-01-22T04:51:32.592Z,5.93
2018-01-22T04:54:00.064Z,9.10
2018-01-22T04:56:27.595Z,7.90
2018-01-22T04:58:55.048Z,7.40
2018-01-22T05:01:23.010Z,7.07
2018-01-22T05:03:58.155Z,7.25
2018-01-22T05:06:25.616Z,8.07
2018-01-22T05:08:54.040Z,8.03
2018-01-22T05:11:21.497Z,7.63
2018-01-22T05:13:49.719Z,10.43
2018-01-22T05:16:17.198Z,8.38
2018-01-22T05:18:44.736Z,8.20
2018-01-22T05:21:13.965Z,8.54
2018-01-22T05:23:41.412Z,7.65
2018-01-22T05:26:09.654Z,9.23
2018-01-22T05:28:37.889Z,8.38
2018-01-22T05:31:05.384Z,10.67
2018-01-22T05:33:32.837Z,9.32
2018-01-22T05:36:00.442Z,8.80
2018-01-22T05:38:27.936Z,8.85
2018-01-22T05:40:57.077Z,9.50
2018-01-22T05:43:24.563Z,8.68
2018-01-22T05:45:52.045Z,9.13
2018-01-22T05:48:19.489Z,8.70
2018-01-22T05:50:47.046Z,10.73
2018-01-22T05:53:14.513Z,10.43
2018-01-22T05:55:42.778Z,8.87
2018-01-22T05:58:11.940Z,10.07
2018-01-22T06:00:39.415Z,9.60
2018-01-22T06:03:06.894Z,9.27
2018-01-22T06:05:34.374Z,10.05
2018-01-22T06:08:01.856Z,7.80
2018-01-22T06:10:30.046Z,10.50
2018-01-22T06:12:57.496Z,9.30
2018-01-22T06:15:24.973Z,8.57
2018-01-22T06:17:52.457Z,8.30
2018-01-22T06:20:20.887Z,8.20
2018-01-22T06:22:50.025Z,10.32
2018-01-22T06:25:17.771Z,9.48
2018-01-22T06:27:45.236Z,9.47
2018-01-22T06:30:12.749Z,9.93
2018-01-22T06:32:40.511Z,8.73
2018-01-22T06:35:08.494Z,7.80
2018-01-22T06:37:35.937Z,10.38
2018-01-22T06:40:03.454Z,9.90
2018-01-22T06:42:30.929Z,8.93
2018-01-22T06:44:58.402Z,8.80
2018-01-22T06:47:25.925Z,9.85
2018-01-22T06:49:53.401Z,8.73
2018-01-22T06:52:22.584Z,8.70
2018-01-22T06:54:50.183Z,9.23
2018-01-22T06:57:18.295Z,8.93
2018-01-22T06:59:47.794Z,9.40
2018-01-22T07:02:15.258Z,6.95
2018-01-22T07:04:46.313Z,8.60
2018-01-22T07:07:13.769Z,9.10
2018-01-22T07:09:42.071Z,9.06
2018-01-22T07:12:10.278Z,8.50
2018-01-22T07:14:37.752Z,8.35
2018-01-22T07:17:06.304Z,7.47
2018-01-22T07:19:39.078Z,8.80
2018-01-22T07:22:06.722Z,10.57
2018-01-22T07:24:34.212Z,9.77
2018-01-22T07:27:02.309Z,9.48
2018-01-22T07:29:29.820Z,7.20
2018-01-22T07:31:57.293Z,7.57
2018-01-22T07:34:24.769Z,7.83
2018-01-22T07:36:52.272Z,7.47
2018-01-22T07:39:19.702Z,7.70
2018-01-22T07:41:47.174Z,7.25
2018-01-22T07:44:14.664Z,8.48
2018-01-22T07:46:42.288Z,7.70
2018-01-22T07:49:10.968Z,6.55
2018-01-22T07:51:38.496Z,8.15
2018-01-22T07:54:06.351Z,7.00
2018-01-22T07:56:34.626Z,8.77
2018-01-22T07:59:02.108Z,8.60
2018-01-22T08:01:29.596Z,8.20
2018-01-22T08:03:57.063Z,7.77
2018-01-22T08:06:24.517Z,7.30
2018-01-22T08:08:52.015Z,7.43
2018-01-22T08:11:19.464Z,8.00
2018-01-22T08:13:46.915Z,7.80
2018-01-22T08:16:15.134Z,7.50
2018-01-22T08:18:43.143Z,6.60
2018-01-22T08:21:10.617Z,6.97
2018-01-22T08:23:38.089Z,7.55
2018-01-22T08:26:05.544Z,7.20
2018-01-22T08:28:33.031Z,8.07
2018-01-22T08:31:01.261Z,6.80
2018-01-22T08:33:28.760Z,6.30
2018-01-22T08:36:00.330Z,6.95
2018-01-22T08:38:27.784Z,6.40
2018-01-22T08:40:55.261Z,6.27
2018-01-22T08:43:22.709Z,7.30
2018-01-22T08:45:50.153Z,6.00
2018-01-22T08:48:17.724Z,6.30
2018-01-22T08:50:45.168Z,6.57
2018-01-22T08:53:12.625Z,6.45
2018-01-22T08:55:41.495Z,6.53
2018-01-22T08:58:08.962Z,6.03
2018-01-22T09:00:36.429Z,6.97
2018-01-22T09:03:04.075Z,6.45
2018-01-22T09:05:31.652Z,7.07
2018-01-22T09:07:59.124Z,5.60
2018-01-22T09:10:26.651Z,5.40
2018-01-22T09:12:54.783Z,5.64
2018-01-22T09:15:23.006Z,5.77
2018-01-22T09:17:50.492Z,6.70
2018-01-22T09:20:17.959Z,6.33
2018-01-22T09:22:45.636Z,6.63
2018-01-22T09:25:13.707Z,6.70
2018-01-22T09:27:41.176Z,10.27
2018-01-22T09:30:08.621Z,6.25
2018-01-22T09:32:36.085Z,6.20
2018-01-22T09:35:03.593Z,5.40
2018-01-22T09:37:31.045Z,5.12
2018-01-22T09:39:58.829Z,4.47
2018-01-22T09:42:26.677Z,4.70
2018-01-22T09:44:54.149Z,4.97
2018-01-22T09:47:22.344Z,4.90
2018-01-22T09:49:49.840Z,6.90
2018-01-22T09:52:17.271Z,6.23
2018-01-22T09:54:44.732Z,5.35
2018-01-22T09:57:12.204Z,6.57
2018-01-22T09:59:39.684Z,5.57
2018-01-22T10:02:07.144Z,5.57
2018-01-22T10:04:34.610Z,5.70
2018-01-22T10:07:02.098Z,6.05
2018-01-22T10:09:30.452Z,6.03
2018-01-22T10:11:57.928Z,5.57
2018-01-22T10:14:25.380Z,4.67
2018-01-22T10:16:52.888Z,5.75
2018-01-22T10:19:20.350Z,5.07
2018-01-22T10:21:47.797Z,4.40
2018-01-22T10:24:18.292Z,4.80
2018-01-22T10:26:45.777Z,5.03
2018-01-22T10:29:13.272Z,4.73
2018-01-22T10:31:40.717Z,4.03
2018-01-22T10:34:08.180Z,4.55
2018-01-22T10:36:35.650Z,4.97
2018-01-22T10:39:10.856Z,4.82
2018-01-22T10:41:38.285Z,4.40
2018-01-22T10:44:05.753Z,3.63
2018-01-22T10:46:34.984Z,3.90
2018-01-22T10:49:02.804Z,4.93
2018-01-22T10:51:31.043Z,3.80
2018-01-22T10:53:59.237Z,3.66
2018-01-22T10:56:27.474Z,4.47
2018-01-22T10:58:55.016Z,4.43
2018-01-22T11:01:22.438Z,4.35
2018-01-22T11:03:50.123Z,5.67
2018-01-22T11:06:18.168Z,4.00
2018-01-22T11:08:46.228Z,4.65
2018-01-22T11:11:14.462Z,4.30
2018-01-22T11:13:42.007Z,5.63
2018-01-22T11:16:10.424Z,5.10
2018-01-22T11:18:37.886Z,4.57
2018-01-22T11:21:05.364Z,4.12
2018-01-22T11:23:37.199Z,4.43
2018-01-22T11:26:04.652Z,4.20
2018-01-22T11:28:32.682Z,4.95
2018-01-22T11:31:00.156Z,5.00
2018-01-22T11:33:27.653Z,3.80
2018-01-22T11:35:55.254Z,4.57
2018-01-22T11:38:22.785Z,4.85
2018-01-22T11:40:53.403Z,3.70
2018-01-22T11:43:20.919Z,4.70
2018-01-22T11:45:48.354Z,3.97
2018-01-22T11:48:16.717Z,4.40
2018-01-22T11:50:44.189Z,3.70
2018-01-22T11:53:11.673Z,5.20
2018-01-22T11:55:39.117Z,4.87
2018-01-22T11:58:06.573Z,4.87
2018-01-22T12:00:34.048Z,4.80
2018-01-22T12:03:01.488Z,4.90
2018-01-22T12:05:28.931Z,5.30
2018-01-22T12:07:56.511Z,5.10
2018-01-22T12:10:24.885Z,6.00
2018-01-22T12:12:52.352Z,4.90
2018-01-22T12:15:19.945Z,3.97
2018-01-22T12:17:47.410Z,4.93
2018-01-22T12:20:14.865Z,4.97
2018-01-22T12:22:42.340Z,6.17
2018-01-22T12:25:13.148Z,5.80
2018-01-22T12:27:40.588Z,4.87
2018-01-22T12:30:08.760Z,4.28
2018-01-22T12:32:36.299Z,5.53
2018-01-22T12:35:03.796Z,5.30
2018-01-22T12:37:31.245Z,5.97
2018-01-22T12:40:01.738Z,5.10
2018-01-22T12:42:29.275Z,5.25
2018-01-22T12:44:56.740Z,7.03
2018-01-22T12:47:24.232Z,4.90
2018-01-22T12:49:51.700Z,5.10
2018-01-22T12:52:19.144Z,5.53
2018-01-22T12:54:47.336Z,5.05
2018-01-22T12:57:14.793Z,4.90
2018-01-22T12:59:42.241Z,5.47
2018-01-22T13:02:09.700Z,6.97
2018-01-22T13:04:37.128Z,5.90
2018-01-22T13:07:04.601Z,4.97
2018-01-22T13:09:32.083Z,5.53
2018-01-22T13:11:59.587Z,5.50
2018-01-22T13:14:27.800Z,6.83
2018-01-22T13:16:55.406Z,7.75
2018-01-22T13:19:23.652Z,5.80
2018-01-22T13:21:51.100Z,5.70
2018-01-22T13:24:18.596Z,5.00
2018-01-22T13:26:46.041Z,6.70
2018-01-22T13:29:13.548Z,5.50
2018-01-22T13:31:40.983Z,6.03
2018-01-22T13:34:08.476Z,4.95
2018-01-22T13:36:36.015Z,5.93
2018-01-22T13:39:05.012Z,5.93
2018-01-22T13:41:35.355Z,8.07
2018-01-22T13:44:02.810Z,5.10
2018-01-22T13:46:30.280Z,7.27
2018-01-22T13:48:57.747Z,6.17
2018-01-22T13:51:25.232Z,6.60
2018-01-22T13:53:53.689Z,6.06
2018-01-22T13:56:21.178Z,6.20
2018-01-22T13:58:49.100Z,5.70
2018-01-22T14:01:16.569Z,6.30
2018-01-22T14:03:44.033Z,5.30
2018-01-22T14:06:11.499Z,5.55
2018-01-22T14:08:39.101Z,7.22
2018-01-22T14:11:07.037Z,7.80
2018-01-22T14:13:34.765Z,6.82
2018-01-22T14:16:02.431Z,7.10
2018-01-22T14:18:29.881Z,8.55
2018-01-22T14:20:57.371Z,8.30
2018-01-22T14:23:24.896Z,8.07
2018-01-22T14:25:52.380Z,7.03
2018-01-22T14:28:20.053Z,7.77
2018-01-22T14:30:47.516Z,7.90
2018-01-22T14:33:15.692Z,7.60
2018-01-22T14:35:43.203Z,7.03
2018-01-22T14:38:10.649Z,7.30
2018-01-22T14:40:38.212Z,8.00
2018-01-22T14:43:05.704Z,6.93
2018-01-22T14:45:34.919Z,7.60
2018-01-22T14:48:03.141Z,7.83
2018-01-22T14:50:30.652Z,6.87
2018-01-22T14:52:58.092Z,7.70
2018-01-22T14:55:25.572Z,7.53
2018-01-22T14:57:56.129Z,8.25
2018-01-22T15:00:24.148Z,7.85
2018-01-22T15:02:51.634Z,7.03
2018-01-22T15:05:19.130Z,8.70
2018-01-22T15:07:46.580Z,8.73
2018-01-22T15:10:14.048Z,7.85
2018-01-22T15:12:45.106Z,7.35
2018-01-22T15:15:13.503Z,8.60
2018-01-22T15:17:41.264Z,7.43
2018-01-22T15:20:10.329Z,8.47
2018-01-22T15:22:38.545Z,7.80
2018-01-22T15:25:06.118Z,8.37
2018-01-22T15:27:33.561Z,9.15
2018-01-22T15:30:01.068Z,8.77
2018-01-22T15:32:30.051Z,9.52
2018-01-22T15:34:58.362Z,8.45
2018-01-22T15:37:25.813Z,8.57
2018-01-22T15:39:53.310Z,9.80
2018-01-22T15:42:21.119Z,8.60
2018-01-22T15:44:48.816Z,7.07
2018-01-22T15:47:16.637Z,8.30
2018-01-22T15:49:44.142Z,7.30
2018-01-22T15:52:11.595Z,7.53
2018-01-22T15:54:39.273Z,7.03
2018-01-22T15:57:06.890Z,7.72
2018-01-22T15:59:34.333Z,7.33
2018-01-22T16:02:01.796Z,9.43
2018-01-22T16:04:29.506Z,9.33
2018-01-22T16:06:57.028Z,9.97
2018-01-22T16:09:25.256Z,10.50
2018-01-22T16:11:52.744Z,12.00
2018-01-22T16:14:20.212Z,9.87
2018-01-22T16:16:47.719Z,11.95
2018-01-22T16:19:15.966Z,13.85
2018-01-22T16:21:44.508Z,11.03
2018-01-22T16:24:12.006Z,11.93
2018-01-22T16:26:39.524Z,11.23
2018-01-22T16:29:07.102Z,11.10
2018-01-22T16:31:34.597Z,9.30
2018-01-22T16:34:02.058Z,9.77
2018-01-22T16:36:29.656Z,10.37
2018-01-22T16:38:57.172Z,11.03
2018-01-22T16:41:24.771Z,10.67
2018-01-22T16:43:56.088Z,10.68
2018-01-22T16:46:23.560Z,11.45
2018-01-22T16:48:51.128Z,9.80
2018-01-22T16:51:18.599Z,9.00
2018-01-22T16:53:46.050Z,12.00
2018-01-22T16:56:13.537Z,10.00
2018-01-22T16:58:41.193Z,11.67
2018-01-22T17:01:08.689Z,11.90
2018-01-22T17:03:37.111Z,14.00
2018-01-22T17:06:04.578Z,10.93
2018-01-22T17:08:32.130Z,11.43
2018-01-22T17:10:59.629Z,11.80
2018-01-22T17:13:27.084Z,12.00
2018-01-22T17:15:54.708Z,11.82
2018-01-22T17:18:22.213Z,11.30
2018-01-22T17:20:50.247Z,12.13
2018-01-22T17:23:17.697Z,14.40
2018-01-22T17:25:45.147Z,13.77
2018-01-22T17:28:12.658Z,12.65
2018-01-22T17:30:44.314Z,12.43
2018-01-22T17:33:11.776Z,11.98
2018-01-22T17:35:39.847Z,13.43
2018-01-22T17:38:07.475Z,15.35
2018-01-22T17:40:34.937Z,14.03
2018-01-22T17:43:02.413Z,14.93
2018-01-22T17:45:29.881Z,15.93
2018-01-22T17:47:57.431Z,16.00
2018-01-22T17:50:24.918Z,15.15
2018-01-22T17:52:54.086Z,15.60
2018-01-22T17:55:21.633Z,15.10
2018-01-22T17:57:49.223Z,16.48
2018-01-22T18:00:17.497Z,17.08
2018-01-22T18:02:45.874Z,17.03
2018-01-22T18:05:13.484Z,18.65
2018-01-22T18:07:40.953Z,15.73
2018-01-22T18:10:08.513Z,15.90
2018-01-22T18:12:35.953Z,14.70
2018-01-22T18:15:03.402Z,15.50
2018-01-22T18:17:30.859Z,16.17
2018-01-22T18:19:58.598Z,16.62
2018-01-22T18:22:26.259Z,15.52
2018-01-22T18:24:53.760Z,15.53
2018-01-22T18:27:21.406Z,12.20
2018-01-22T18:29:48.857Z,14.00
2018-01-22T18:32:16.332Z,12.60
2018-01-22T18:34:43.779Z,10.48
2018-01-22T18:37:11.343Z,12.55
2018-01-22T18:39:38.883Z,14.10
2018-01-22T18:42:06.437Z,13.35
2018-01-22T18:44:35.772Z,12.95
2018-01-22T18:47:03.210Z,14.30
2018-01-22T18:49:31.937Z,13.17
2018-01-22T18:51:59.372Z,12.90
2018-01-22T18:54:26.953Z,13.38
2018-01-22T18:56:54.487Z,14.53
2018-01-22T18:59:21.951Z,13.37
2018-01-22T19:01:49.463Z,13.43
2018-01-22T19:04:17.750Z,12.68
2018-01-22T19:06:45.199Z,12.53
2018-01-22T19:09:14.682Z,13.07
2018-01-22T19:11:42.145Z,12.63
2018-01-22T19:14:09.639Z,11.93
2018-01-22T19:16:42.124Z,12.82
2018-01-22T19:19:09.603Z,12.53
2018-01-22T19:21:37.042Z,13.50
2018-01-22T19:24:05.301Z,10.10
2018-01-22T19:26:32.895Z,12.98
2018-01-22T19:29:00.443Z,8.30
2018-01-22T19:31:27.876Z,12.27
2018-01-22T19:33:55.436Z,12.23
2018-01-22T19:36:23.384Z,11.57
2018-01-22T19:38:52.568Z,12.53
2018-01-22T19:41:20.033Z,13.90
2018-01-22T19:43:47.755Z,13.23
2018-01-22T19:46:15.272Z,11.50
2018-01-22T19:48:42.764Z,12.07
2018-01-22T19:51:10.244Z,12.50
2018-01-22T19:53:37.771Z,14.30
2018-01-22T19:56:05.985Z,11.20
2018-01-22T19:58:33.480Z,13.43
2018-01-22T20:01:00.999Z,14.13
2018-01-22T20:03:28.616Z,10.60
2018-01-22T20:05:56.913Z,12.07
2018-01-22T20:08:25.338Z,13.43
2018-01-22T20:10:53.402Z,14.00
2018-01-22T20:13:20.935Z,13.90
2018-01-22T20:15:48.422Z,9.87
2018-01-22T20:18:15.927Z,14.20
2018-01-22T20:20:43.586Z,12.52
2018-01-22T20:23:11.061Z,12.10
2018-01-22T20:25:38.899Z,11.90
2018-01-22T20:28:06.500Z,12.88
2018-01-22T20:30:33.989Z,13.63
2018-01-22T20:33:01.434Z,12.90
2018-01-22T20:35:29.729Z,13.55
2018-01-22T20:37:58.972Z,9.80
2018-01-22T20:40:26.686Z,10.73
2018-01-22T20:42:54.168Z,11.23
2018-01-22T20:45:21.625Z,12.80
2018-01-22T20:47:52.708Z,12.27
2018-01-22T20:50:20.174Z,11.90
2018-01-22T20:52:47.694Z,11.03
2018-01-22T20:55:15.186Z,10.53
2018-01-22T20:57:42.687Z,12.00
2018-01-22T21:00:10.205Z,11.80
2018-01-22T21:02:37.719Z,12.10
2018-01-22T21:05:05.239Z,14.47
2018-01-22T21:07:32.673Z,13.70
2018-01-22T21:10:00.190Z,13.10
2018-01-22T21:12:28.597Z,12.70
2018-01-22T21:14:56.296Z,12.43
2018-01-22T21:17:23.791Z,12.85
2018-01-22T21:19:51.363Z,13.07
2018-01-22T21:22:18.852Z,11.10
2018-01-22T21:24:46.315Z,13.27
2018-01-22T21:27:14.708Z,14.68
2018-01-22T21:29:42.197Z,12.82
2018-01-22T21:32:09.714Z,13.50
2018-01-22T21:34:40.532Z,12.63
2018-01-22T21:37:07.989Z,13.43
2018-01-22T21:39:35.452Z,15.05
2018-01-22T21:42:02.993Z,14.07
2018-01-22T21:44:30.468Z,14.83
2018-01-22T21:46:58.923Z,14.30
2018-01-22T21:49:33.674Z,14.87
2018-01-22T21:52:01.125Z,15.17
2018-01-22T21:54:28.654Z,12.50
2018-01-22T21:56:56.103Z,13.63
2018-01-22T21:59:24.591Z,12.50
2018-01-22T22:01:52.066Z,9.23
2018-01-22T22:04:19.554Z,13.33
2018-01-22T22:06:47.306Z,13.80
2018-01-22T22:09:14.760Z,15.70
2018-01-22T22:11:43.151Z,12.80
2018-01-22T22:14:10.616Z,14.33
2018-01-22T22:16:38.110Z,14.33
2018-01-22T22:19:05.622Z,14.20
2018-01-22T22:21:33.118Z,14.20
2018-01-22T22:24:00.586Z,13.63
2018-01-22T22:26:28.039Z,16.63
2018-01-22T22:28:55.582Z,11.80
2018-01-22T22:31:26.100Z,11.80
2018-01-22T22:33:54.306Z,13.60
2018-01-22T22:36:22.055Z,13.95
2018-01-22T22:38:49.539Z,13.90
2018-01-22T22:41:16.964Z,13.17
2018-01-22T22:43:44.413Z,12.90
2018-01-22T22:46:11.869Z,13.23
2018-01-22T22:48:39.335Z,12.13
2018-01-22T22:51:10.132Z,12.03
2018-01-22T22:53:37.649Z,10.40
2018-01-22T22:56:05.464Z,11.60
2018-01-22T22:58:32.920Z,11.55
2018-01-22T23:01:00.398Z,8.77
2018-01-22T23:03:28.631Z,11.00
2018-01-22T23:05:59.511Z,10.40
2018-01-22T23:08:27.148Z,11.47
2018-01-22T23:10:55.926Z,11.73
2018-01-22T23:13:23.393Z,9.90
2018-01-22T23:15:50.834Z,9.00
2018-01-22T23:18:18.312Z,8.63
2018-01-22T23:20:45.813Z,6.67
2018-01-22T23:23:14.652Z,9.13
2018-01-22T23:25:42.171Z,11.37
2018-01-22T23:28:09.645Z,11.43
2018-01-22T23:30:37.133Z,11.27
2018-01-22T23:33:05.560Z,10.23
2018-01-22T23:35:33.480Z,10.48
2018-01-22T23:38:00.993Z,10.10
2018-01-22T23:40:28.477Z,10.03
2018-01-22T23:42:55.950Z,9.80
2018-01-22T23:45:25.292Z,10.02
2018-01-22T23:47:52.750Z,10.65
2018-01-22T23:50:20.191Z,9.67
2018-01-22T23:52:47.652Z,10.80
2018-01-22T23:55:15.368Z,9.70
2018-01-22T23:57:42.820Z,9.90
